createdAt,value
2022-11-14T00:01:13.456Z,101929.13
2022-11-14T00:03:41.746Z,101927.63
2022-11-14T00:06:09.319Z,101924.50
2022-11-14T00:08:36.400Z,101929.28
2022-11-14T00:11:03.949Z,101921.53
2022-11-14T00:13:30.931Z,101926.00
2022-11-14T00:15:57.921Z,101928.81
2022-11-14T00:18:24.965Z,101919.56
2022-11-14T00:20:53.986Z,101923.84
2022-11-14T00:23:22.049Z,101926.00
2022-11-14T00:25:49.649Z,101922.84
2022-11-14T00:28:16.920Z,101920.53
2022-11-14T00:30:47.996Z,101918.88
2022-11-14T00:33:20.132Z,101918.56
2022-11-14T00:35:54.532Z,101909.78
2022-11-14T00:38:22.391Z,101910.28
2022-11-14T00:40:49.338Z,101909.94
2022-11-14T00:43:16.395Z,101895.72
2022-11-14T00:45:44.726Z,101901.16
2022-11-14T00:48:11.775Z,101896.38
2022-11-14T00:50:38.810Z,101899.38
2022-11-14T00:53:07.334Z,101891.75
2022-11-14T00:55:34.288Z,101895.38
2022-11-14T00:58:01.459Z,101895.38
2022-11-14T01:00:28.582Z,101895.06
2022-11-14T01:02:56.828Z,101895.72
2022-11-14T01:05:24.626Z,101896.38
2022-11-14T01:07:52.002Z,101895.41
2022-11-14T01:10:21.045Z,101888.75
2022-11-14T01:12:48.457Z,101880.69
2022-11-14T01:15:15.468Z,101878.53
2022-11-14T01:17:42.425Z,101880.16
2022-11-14T01:20:09.882Z,101872.56
2022-11-14T01:22:36.796Z,101871.22
2022-11-14T01:25:04.372Z,101870.88
2022-11-14T01:27:32.787Z,101869.53
2022-11-14T01:29:59.760Z,101878.13
2022-11-14T01:32:27.304Z,101875.50
2022-11-14T01:34:54.547Z,101865.25
2022-11-14T01:37:21.905Z,101864.59
2022-11-14T01:39:48.967Z,101863.28
2022-11-14T01:42:17.617Z,101858.81
2022-11-14T01:44:49.143Z,101862.44
2022-11-14T01:47:22.375Z,101855.69
2022-11-14T01:49:54.606Z,101853.06
2022-11-14T01:52:26.561Z,101850.59
2022-11-14T01:54:58.708Z,101839.16
2022-11-14T01:57:31.152Z,101840.00
2022-11-14T02:00:06.067Z,101835.88
2022-11-14T02:02:33.169Z,101821.34
2022-11-14T02:05:06.722Z,101828.63
2022-11-14T02:07:39.827Z,101825.28
2022-11-14T02:10:11.295Z,101816.38
2022-11-14T02:12:38.534Z,101817.03
2022-11-14T02:15:09.958Z,101817.53
2022-11-14T02:17:37.064Z,101815.38
2022-11-14T02:20:19.017Z,101808.44
2022-11-14T02:22:45.927Z,101794.38
2022-11-14T02:25:18.502Z,101794.03
2022-11-14T02:27:45.584Z,101791.59
2022-11-14T02:30:18.333Z,101788.59
2022-11-14T02:33:09.548Z,101785.78
2022-11-14T02:35:33.928Z,101782.31
2022-11-14T02:38:00.932Z,101768.75
2022-11-14T02:40:27.853Z,101773.25
2022-11-14T02:42:54.801Z,101768.47
2022-11-14T02:45:21.867Z,101767.16
2022-11-14T02:47:48.855Z,101770.16
2022-11-14T02:50:16.610Z,101767.16
2022-11-14T02:52:44.845Z,101772.72
2022-11-14T02:55:12.520Z,101757.22
2022-11-14T02:57:39.656Z,101752.25
2022-11-14T03:00:14.370Z,101749.59
2022-11-14T03:02:42.257Z,101740.50
2022-11-14T03:05:09.799Z,101731.06
2022-11-14T03:07:36.805Z,101730.94
2022-11-14T03:10:06.939Z,101729.13
2022-11-14T03:12:33.964Z,101733.44
2022-11-14T03:15:00.948Z,101730.28
2022-11-14T03:17:32.115Z,101729.13
2022-11-14T03:19:59.137Z,101723.84
2022-11-14T03:22:26.299Z,101730.97
2022-11-14T03:24:53.609Z,101715.06
2022-11-14T03:27:22.085Z,101720.56
2022-11-14T03:29:49.307Z,101719.06
2022-11-14T03:32:16.559Z,101715.59
2022-11-14T03:34:43.497Z,101712.63
2022-11-14T03:37:10.943Z,101720.06
2022-11-14T03:39:37.865Z,101718.72
2022-11-14T03:42:05.070Z,101722.53
2022-11-14T03:44:33.332Z,101720.53
2022-11-14T03:47:00.311Z,101716.44
2022-11-14T03:49:27.400Z,101712.28
2022-11-14T03:51:54.329Z,101711.63
2022-11-14T03:54:21.312Z,101711.63
2022-11-14T03:56:48.388Z,101718.56
2022-11-14T03:59:15.319Z,101709.00
2022-11-14T04:01:43.582Z,101697.59
2022-11-14T04:04:12.381Z,101699.44
2022-11-14T04:06:39.314Z,101693.63
2022-11-14T04:09:06.586Z,101695.13
2022-11-14T04:11:33.535Z,101691.31
2022-11-14T04:14:00.512Z,101692.63
2022-11-14T04:16:27.549Z,101683.91
2022-11-14T04:18:55.834Z,101679.91
2022-11-14T04:21:22.745Z,101678.94
2022-11-14T04:23:49.766Z,101680.09
2022-11-14T04:26:16.706Z,101688.50
2022-11-14T04:28:43.756Z,101684.22
2022-11-14T04:31:10.856Z,101692.78
2022-11-14T04:33:37.810Z,101680.88
2022-11-14T04:36:07.228Z,101671.97
2022-11-14T04:38:34.170Z,101673.78
2022-11-14T04:41:01.110Z,101668.66
2022-11-14T04:43:28.075Z,101674.94
2022-11-14T04:45:54.999Z,101668.84
2022-11-14T04:48:22.007Z,101665.06
2022-11-14T04:50:48.923Z,101668.34
2022-11-14T04:53:17.287Z,101655.13
2022-11-14T04:55:45.597Z,101661.25
2022-11-14T04:58:12.563Z,101659.25
2022-11-14T05:00:39.831Z,101656.94
2022-11-14T05:03:06.734Z,101648.50
2022-11-14T05:05:35.957Z,101650.81
2022-11-14T05:08:06.324Z,101641.75
2022-11-14T05:10:34.693Z,101643.44
2022-11-14T05:13:02.310Z,101641.94
2022-11-14T05:15:29.287Z,101643.94
2022-11-14T05:17:57.723Z,101629.78
2022-11-14T05:20:24.734Z,101631.56
2022-11-14T05:22:54.289Z,101640.66
2022-11-14T05:25:21.855Z,101638.84
2022-11-14T05:27:50.199Z,101637.19
2022-11-14T05:30:17.880Z,101637.34
2022-11-14T05:32:45.019Z,101642.31
2022-11-14T05:35:12.137Z,101635.22
2022-11-14T05:37:39.229Z,101633.22
2022-11-14T05:40:07.174Z,101626.13
2022-11-14T05:42:34.125Z,101628.75
2022-11-14T05:45:02.496Z,101623.28
2022-11-14T05:47:29.454Z,101619.34
2022-11-14T05:49:56.428Z,101616.22
2022-11-14T05:52:23.356Z,101617.19
2022-11-14T05:54:50.323Z,101609.91
2022-11-14T05:57:17.297Z,101613.72
2022-11-14T05:59:44.306Z,101609.59
2022-11-14T06:02:12.642Z,101611.59
2022-11-14T06:04:39.664Z,101609.25
2022-11-14T06:07:06.769Z,101607.09
2022-11-14T06:09:33.721Z,101598.53
2022-11-14T06:12:00.659Z,101598.06
2022-11-14T06:14:27.566Z,101608.28
2022-11-14T06:16:54.504Z,101601.72
2022-11-14T06:19:22.778Z,101609.13
2022-11-14T06:21:49.781Z,101596.44
2022-11-14T06:24:16.999Z,101612.28
2022-11-14T06:26:43.992Z,101611.75
2022-11-14T06:29:11.480Z,101610.94
2022-11-14T06:31:38.469Z,101604.50
2022-11-14T06:34:06.159Z,101599.22
2022-11-14T06:36:34.490Z,101608.81
2022-11-14T06:39:01.450Z,101615.56
2022-11-14T06:41:28.435Z,101599.38
2022-11-14T06:43:55.480Z,101596.06
2022-11-14T06:46:23.681Z,101609.94
2022-11-14T06:48:52.435Z,101604.47
2022-11-14T06:51:19.745Z,101608.25
2022-11-14T06:53:48.076Z,101617.63
2022-11-14T06:56:17.588Z,101607.69
2022-11-14T06:58:47.551Z,101619.41
2022-11-14T07:01:17.606Z,101628.00
2022-11-14T07:03:45.962Z,101622.06
2022-11-14T07:06:15.978Z,101613.19
2022-11-14T07:08:43.047Z,101617.81
2022-11-14T07:11:22.587Z,101620.13
2022-11-14T07:13:49.766Z,101624.56
2022-11-14T07:16:17.146Z,101624.56
2022-11-14T07:18:44.649Z,101625.00
2022-11-14T07:21:13.317Z,101621.94
2022-11-14T07:23:48.229Z,101622.38
2022-11-14T07:26:20.475Z,101623.22
2022-11-14T07:28:53.620Z,101637.41
2022-11-14T07:31:25.130Z,101621.25
2022-11-14T07:33:52.216Z,101624.34
2022-11-14T07:36:19.323Z,101624.84
2022-11-14T07:38:47.353Z,101616.78
2022-11-14T07:41:17.396Z,101618.44
2022-11-14T07:43:45.060Z,101617.00
2022-11-14T07:46:15.502Z,101615.00
2022-11-14T07:48:43.523Z,101615.53
2022-11-14T07:51:18.518Z,101612.25
2022-11-14T07:53:46.188Z,101612.22
2022-11-14T07:56:13.552Z,101602.69
2022-11-14T07:58:42.294Z,101603.69
2022-11-14T08:01:13.024Z,101609.97
2022-11-14T08:03:45.594Z,101598.41
2022-11-14T08:06:15.656Z,101596.56
2022-11-14T08:08:42.925Z,101595.91
2022-11-14T08:11:10.443Z,101600.88
2022-11-14T08:13:37.718Z,101599.06
2022-11-14T08:16:13.254Z,101601.53
2022-11-14T08:18:41.388Z,101601.72
2022-11-14T08:21:08.738Z,101589.81
2022-11-14T08:23:35.965Z,101599.06
2022-11-14T08:26:03.232Z,101590.63
2022-11-14T08:28:30.551Z,101587.19
2022-11-14T08:31:00.461Z,101582.88
2022-11-14T08:33:29.210Z,101592.78
2022-11-14T08:35:56.159Z,101571.34
2022-11-14T08:38:23.176Z,101581.22
2022-11-14T08:40:50.122Z,101585.88
2022-11-14T08:43:17.057Z,101574.81
2022-11-14T08:45:44.208Z,101581.56
2022-11-14T08:48:14.354Z,101580.56
2022-11-14T08:50:45.819Z,101584.53
2022-11-14T08:53:12.786Z,101578.56
2022-11-14T08:55:44.183Z,101576.44
2022-11-14T08:58:11.592Z,101572.97
2022-11-14T09:00:38.579Z,101574.63
2022-11-14T09:03:08.276Z,101568.66
2022-11-14T09:05:38.604Z,101574.59
2022-11-14T09:08:07.710Z,101570.97
2022-11-14T09:10:35.140Z,101570.66
2022-11-14T09:13:02.770Z,101573.47
2022-11-14T09:15:30.647Z,101576.44
2022-11-14T09:17:58.167Z,101570.66
2022-11-14T09:20:31.670Z,101579.75
2022-11-14T09:23:01.373Z,101576.78
2022-11-14T09:25:30.700Z,101573.97
2022-11-14T09:27:58.718Z,101564.56
2022-11-14T09:30:25.831Z,101577.09
2022-11-14T09:32:52.786Z,101573.97
2022-11-14T09:35:19.884Z,101574.63
2022-11-14T09:37:46.854Z,101572.81
2022-11-14T09:40:14.372Z,101572.16
2022-11-14T09:43:17.883Z,101577.41
2022-11-14T09:45:52.441Z,101569.19
2022-11-14T09:48:25.826Z,101567.38
2022-11-14T09:51:07.066Z,101563.22
2022-11-14T09:53:40.676Z,101560.91
2022-11-14T09:56:12.863Z,101564.03
2022-11-14T09:58:42.828Z,101568.53
2022-11-14T10:01:17.793Z,101566.03
2022-11-14T10:03:58.454Z,101573.63
2022-11-14T10:06:33.482Z,101570.00
2022-11-14T10:09:30.188Z,101561.56
2022-11-14T10:12:13.166Z,101555.00
2022-11-14T10:15:10.326Z,101563.91
2022-11-14T10:18:07.122Z,101562.25
2022-11-14T10:20:44.870Z,101548.09
2022-11-14T10:23:40.219Z,101547.75
2022-11-14T10:26:15.480Z,101533.56
2022-11-14T10:29:06.521Z,101529.59
2022-11-14T10:31:51.969Z,101525.47
2022-11-14T10:34:34.210Z,101519.53
2022-11-14T10:37:17.080Z,101527.44
2022-11-14T10:39:53.184Z,101520.88
2022-11-14T10:42:29.845Z,101509.16
2022-11-14T10:45:04.310Z,101510.63
2022-11-14T10:47:40.893Z,101505.53
2022-11-14T10:50:19.523Z,101513.63
2022-11-14T10:52:52.375Z,101507.66
2022-11-14T10:55:24.864Z,101506.47
2022-11-14T10:58:11.005Z,101508.47
2022-11-14T11:00:38.019Z,101491.28
2022-11-14T11:03:07.509Z,101481.69
2022-11-14T11:05:50.683Z,101478.88
2022-11-14T11:08:43.588Z,101471.91
2022-11-14T11:11:36.148Z,101465.66
2022-11-14T11:14:03.632Z,101466.13
2022-11-14T11:16:30.677Z,101464.63
2022-11-14T11:19:21.340Z,101454.34
2022-11-14T11:21:51.804Z,101459.41
2022-11-14T11:24:33.130Z,101468.09
2022-11-14T11:27:23.666Z,101467.31
2022-11-14T11:30:10.203Z,101463.63
2022-11-14T11:32:37.261Z,101458.72
2022-11-14T11:35:13.588Z,101466.84
2022-11-14T11:37:46.575Z,101455.41
2022-11-14T11:40:20.315Z,101447.63
2022-11-14T11:45:49.745Z,101451.22
2022-11-14T11:48:20.306Z,101453.13
2022-11-14T11:50:50.301Z,101454.25
2022-11-14T11:53:24.390Z,101450.38
2022-11-14T11:55:56.463Z,101450.16
2022-11-14T11:58:29.503Z,101425.13
2022-11-14T12:00:56.561Z,101438.41
2022-11-14T12:03:27.424Z,101450.94
2022-11-14T12:06:13.881Z,101436.19
2022-11-14T12:08:58.230Z,101432.53
2022-11-14T12:11:30.226Z,101422.91
2022-11-14T12:14:39.417Z,101436.66
2022-11-14T12:18:16.989Z,101436.59
2022-11-14T12:21:10.166Z,101443.09
2022-11-14T12:24:22.940Z,101442.88
2022-11-14T12:27:17.558Z,101429.13
2022-11-14T12:30:11.840Z,101419.84
2022-11-14T12:32:44.838Z,101421.75
2022-11-14T12:35:21.433Z,101410.81
2022-11-14T12:37:55.986Z,101407.09
2022-11-14T12:40:35.846Z,101414.53
2022-11-14T12:43:06.738Z,101412.59
2022-11-14T12:45:57.947Z,101406.09
2022-11-14T12:48:33.659Z,101398.56
2022-11-14T12:51:03.658Z,101409.50
2022-11-14T12:53:45.113Z,101400.22
2022-11-14T12:57:00.090Z,101386.47
2022-11-14T12:59:40.086Z,101407.72
2022-11-14T13:02:56.276Z,101405.22
2022-11-14T13:05:47.383Z,101408.28
2022-11-14T13:08:50.934Z,101394.09
2022-11-14T13:12:03.101Z,101392.56
2022-11-14T13:14:49.875Z,101397.03
2022-11-14T13:17:44.943Z,101392.00
2022-11-14T13:20:47.588Z,101387.56
2022-11-14T13:23:56.655Z,101391.50
2022-11-14T13:26:54.789Z,101378.00
2022-11-14T13:29:54.251Z,101357.34
2022-11-14T13:33:01.106Z,101357.06
2022-11-14T13:35:51.349Z,101357.38
2022-11-14T13:39:01.539Z,101353.56
2022-11-14T13:42:06.090Z,101343.47
2022-11-14T13:45:18.952Z,101342.97
2022-11-14T13:48:19.733Z,101339.25
2022-11-14T13:50:52.223Z,101337.41
2022-11-14T13:53:24.495Z,101338.34
2022-11-14T13:56:16.102Z,101331.97
2022-11-14T13:59:14.144Z,101332.31
2022-11-14T14:02:06.706Z,101320.66
2022-11-14T14:04:53.272Z,101317.59
2022-11-14T14:07:39.986Z,101315.13
2022-11-14T14:10:24.261Z,101311.16
2022-11-14T14:13:14.264Z,101317.59
2022-11-14T14:15:50.173Z,101304.09
2022-11-14T14:18:35.121Z,101311.75
2022-11-14T14:21:17.746Z,101302.72
2022-11-14T14:23:58.426Z,101304.66
2022-11-14T14:26:38.072Z,101321.00
2022-11-14T14:29:25.198Z,101310.41
2022-11-14T14:31:52.610Z,101306.88
2022-11-14T14:34:23.963Z,101312.63
2022-11-14T14:36:54.179Z,101309.16
2022-11-14T14:39:27.245Z,101310.09
2022-11-14T14:41:58.166Z,101305.44
2022-11-14T14:44:34.203Z,101306.44
2022-11-14T14:47:16.575Z,101299.88
2022-11-14T14:49:44.887Z,101299.66
2022-11-14T14:52:28.044Z,101289.91
2022-11-14T14:54:56.851Z,101293.94
2022-11-14T14:57:24.311Z,101292.09
2022-11-14T15:00:01.387Z,101293.56
2022-11-14T15:02:29.894Z,101287.56
2022-11-14T15:04:59.842Z,101283.53
2022-11-14T15:07:30.481Z,101281.53
2022-11-14T15:10:01.398Z,101289.19
2022-11-14T15:12:32.193Z,101290.00
2022-11-14T15:15:03.237Z,101277.53
2022-11-14T15:17:35.666Z,101286.63
2022-11-14T15:20:03.733Z,101283.34
2022-11-14T15:22:30.899Z,101284.97
2022-11-14T15:25:20.205Z,101280.72
2022-11-14T15:27:53.259Z,101269.75
2022-11-14T15:30:26.095Z,101267.94
2022-11-14T15:32:55.794Z,101266.41
2022-11-14T15:35:31.053Z,101259.72
2022-11-14T15:41:20.758Z,101274.41
2022-11-14T15:43:52.913Z,101269.59
2022-11-14T15:46:46.192Z,101258.34
2022-11-14T15:49:25.360Z,101261.66
2022-11-14T15:51:58.433Z,101259.00
2022-11-14T15:54:29.266Z,101264.31
2022-11-14T15:56:59.653Z,101265.28
2022-11-14T15:59:30.112Z,101268.56
2022-11-14T16:02:04.313Z,101265.94
2022-11-14T16:04:35.614Z,101256.19
2022-11-14T16:07:02.822Z,101258.00
2022-11-14T16:09:30.174Z,101249.88
2022-11-14T16:11:57.401Z,101246.41
2022-11-14T16:14:24.489Z,101238.47
2022-11-14T16:16:51.433Z,101233.19
2022-11-14T16:19:21.796Z,101227.06
2022-11-14T16:21:49.080Z,101227.06
2022-11-14T16:24:18.716Z,101229.91
2022-11-14T16:26:46.562Z,101231.88
2022-11-14T16:29:13.966Z,101239.19
2022-11-14T16:31:41.630Z,101249.78
2022-11-14T16:34:19.949Z,101236.75
2022-11-14T16:36:48.756Z,101241.22
2022-11-14T16:39:16.514Z,101229.34
2022-11-14T16:41:43.940Z,101238.28
2022-11-14T16:44:16.670Z,101225.59
2022-11-14T16:46:44.754Z,101225.59
2022-11-14T16:49:15.142Z,101228.44
2022-11-14T16:51:48.149Z,101226.78
2022-11-14T16:54:19.570Z,101232.47
2022-11-14T16:56:47.954Z,101230.81
2022-11-14T16:59:15.351Z,101232.81
2022-11-14T17:01:43.368Z,101228.34
2022-11-14T17:04:11.002Z,101230.19
2022-11-14T17:06:38.406Z,101227.53
2022-11-14T17:09:05.481Z,101219.75
2022-11-14T17:11:33.958Z,101218.97
2022-11-14T17:14:01.135Z,101221.97
2022-11-14T17:16:28.248Z,101211.56
2022-11-14T17:18:56.165Z,101216.03
2022-11-14T17:21:24.527Z,101221.50
2022-11-14T17:23:55.574Z,101224.31
2022-11-14T17:26:23.389Z,101211.09
2022-11-14T17:28:51.774Z,101209.09
2022-11-14T17:31:19.209Z,101211.94
2022-11-14T17:33:51.609Z,101205.19
2022-11-14T17:36:18.991Z,101201.91
2022-11-14T17:38:46.080Z,101196.97
2022-11-14T17:41:13.165Z,101200.97
2022-11-14T17:43:40.816Z,101198.06
2022-11-14T17:46:15.873Z,101197.41
2022-11-14T17:48:43.671Z,101189.22
2022-11-14T17:51:13.817Z,101193.19
2022-11-14T17:53:42.337Z,101193.94
2022-11-14T17:56:13.511Z,101189.00
2022-11-14T17:58:40.846Z,101189.19
2022-11-14T18:01:14.942Z,101185.72
2022-11-14T18:03:42.333Z,101183.91
2022-11-14T18:06:12.410Z,101178.41
2022-11-14T18:08:41.187Z,101178.06
2022-11-14T18:11:12.091Z,101182.38
2022-11-14T18:13:40.250Z,101182.38
2022-11-14T18:16:13.040Z,101180.34
2022-11-14T18:18:40.902Z,101174.06
2022-11-14T18:21:10.192Z,101169.59
2022-11-14T18:23:38.595Z,101176.06
2022-11-14T18:26:11.108Z,101178.41
2022-11-14T18:28:38.652Z,101172.81
2022-11-14T18:31:07.379Z,101173.84
2022-11-14T18:33:36.367Z,101170.91
2022-11-14T18:36:08.234Z,101172.44
2022-11-14T18:38:35.862Z,101159.41
2022-11-14T18:41:08.271Z,101156.78
2022-11-14T18:43:36.327Z,101155.78
2022-11-14T18:46:10.902Z,101150.84
2022-11-14T18:48:42.434Z,101160.13
2022-11-14T18:51:14.385Z,101156.84
2022-11-14T18:53:41.844Z,101157.03
2022-11-14T18:56:11.819Z,101151.94
2022-11-14T18:58:40.685Z,101143.63
2022-11-14T19:01:13.632Z,101145.09
2022-11-14T19:03:42.806Z,101134.91
2022-11-14T19:06:12.514Z,101139.34
2022-11-14T19:08:40.820Z,101138.53
2022-11-14T19:11:30.171Z,101132.41
2022-11-14T19:14:00.450Z,101138.19
2022-11-14T19:16:29.386Z,101132.06
2022-11-14T19:18:59.263Z,101125.13
2022-11-14T19:21:28.114Z,101120.38
2022-11-14T19:23:55.775Z,101114.28
2022-11-14T19:26:25.495Z,101117.41
2022-11-14T19:28:53.504Z,101116.28
2022-11-14T19:31:22.840Z,101104.44
2022-11-14T19:33:50.200Z,101109.19
2022-11-14T19:36:45.327Z,101105.09
2022-11-14T19:39:10.015Z,101097.34
2022-11-14T19:41:37.302Z,101099.44
2022-11-14T19:44:05.248Z,101099.91
2022-11-14T19:46:32.506Z,101092.25
2022-11-14T19:49:01.331Z,101093.09
2022-11-14T19:51:32.741Z,101091.28
2022-11-14T19:54:01.776Z,101094.72
2022-11-14T19:56:29.034Z,101081.34
2022-11-14T19:58:57.193Z,101088.00
2022-11-14T20:01:26.603Z,101079.53
2022-11-14T20:03:56.509Z,101080.72
2022-11-14T20:06:27.272Z,101072.66
2022-11-14T20:08:57.259Z,101068.06
2022-11-14T20:11:28.277Z,101065.22
2022-11-14T20:13:57.707Z,101068.50
2022-11-14T20:16:28.532Z,101058.13
2022-11-14T20:18:59.216Z,101059.94
2022-11-14T20:21:29.460Z,101059.94
2022-11-14T20:23:58.450Z,101059.56
2022-11-14T20:26:26.071Z,101067.22
2022-11-14T20:28:54.492Z,101059.38
2022-11-14T20:31:24.773Z,101056.44
2022-11-14T20:33:53.496Z,101063.03
2022-11-14T20:36:23.854Z,101062.66
2022-11-14T20:38:52.042Z,101053.38
2022-11-14T20:41:20.886Z,101059.09
2022-11-14T20:43:48.308Z,101042.41
2022-11-14T20:46:18.189Z,101037.34
2022-11-14T20:48:46.701Z,101044.06
2022-11-14T20:51:16.608Z,101038.78
2022-11-14T20:53:44.733Z,101035.59
2022-11-14T20:56:13.546Z,101032.75
2022-11-14T20:58:42.948Z,101031.97
2022-11-14T21:01:10.732Z,101035.41
2022-11-14T21:03:38.580Z,101029.78
2022-11-14T21:06:07.639Z,101031.13
2022-11-14T21:08:35.959Z,101030.00
2022-11-14T21:11:06.555Z,101023.13
2022-11-14T21:13:54.875Z,101024.41
2022-11-14T21:16:27.370Z,101018.13
2022-11-14T21:18:55.573Z,101009.72
2022-11-14T21:21:27.118Z,101002.69
2022-11-14T21:23:55.619Z,100998.31
2022-11-14T21:26:25.206Z,101001.22
2022-11-14T21:28:55.571Z,101001.56
2022-11-14T21:31:27.469Z,100996.09
2022-11-14T21:33:56.904Z,101001.22
2022-11-14T21:39:14.497Z,100991.34
2022-11-14T21:41:42.909Z,100995.81
2022-11-14T21:44:13.165Z,100996.59
2022-11-14T21:46:42.171Z,100990.47
2022-11-14T21:49:09.900Z,100987.19
2022-11-14T21:51:36.842Z,100993.13
2022-11-14T21:54:06.161Z,100986.31
2022-11-14T21:56:35.811Z,100980.38
2022-11-14T21:59:14.261Z,100978.09
2022-11-14T22:02:03.830Z,100980.75
2022-11-14T22:04:31.803Z,100984.16
2022-11-14T22:06:59.532Z,100977.97
2022-11-14T22:09:27.946Z,100980.22
2022-11-14T22:11:55.485Z,100988.13
2022-11-14T22:14:22.615Z,100987.78
2022-11-14T22:16:51.206Z,100990.00
2022-11-14T22:19:18.903Z,100990.97
2022-11-14T22:21:46.098Z,100990.88
2022-11-14T22:24:13.029Z,100979.38
2022-11-14T22:26:41.225Z,100978.28
2022-11-14T22:29:09.141Z,100972.41
2022-11-14T22:31:37.998Z,100978.78
2022-11-14T22:34:06.723Z,100980.84
2022-11-14T22:36:33.810Z,100980.47
2022-11-14T22:39:01.075Z,100978.09
2022-11-14T22:41:33.028Z,100966.94
2022-11-14T22:44:01.430Z,100978.56
2022-11-14T22:46:29.192Z,100961.66
2022-11-14T22:48:56.520Z,100968.41
2022-11-14T22:51:27.241Z,100970.47
2022-11-14T22:53:57.199Z,100963.63
2022-11-14T22:56:27.421Z,100969.34
2022-11-14T22:58:55.127Z,100958.75
2022-11-14T23:01:24.421Z,100965.69
2022-11-14T23:03:54.966Z,100962.53
2022-11-14T23:06:24.368Z,100965.97
2022-11-14T23:08:52.157Z,100959.03
2022-11-14T23:11:22.338Z,100961.84
2022-11-14T23:13:51.974Z,100958.41
2022-11-14T23:16:22.573Z,100951.28
2022-11-14T23:18:50.920Z,100961.84
2022-11-14T23:21:20.931Z,100955.50
2022-11-14T23:23:54.529Z,100959.31
2022-11-14T23:26:22.499Z,100963.78
2022-11-14T23:28:49.926Z,100955.22
2022-11-14T23:31:20.527Z,100966.06
2022-11-14T23:33:48.818Z,100960.56
2022-11-14T23:36:16.330Z,100951.66
2022-11-14T23:38:43.486Z,100953.22
2022-11-14T23:41:17.415Z,100953.63
2022-11-14T23:43:45.142Z,100955.22
2022-11-14T23:46:13.154Z,100961.97
2022-11-14T23:48:40.674Z,100951.22
2022-11-14T23:51:08.091Z,100959.78
2022-11-14T23:53:35.070Z,100955.06
2022-11-14T23:56:02.555Z,100955.22
2022-11-14T23:58:31.014Z,100950.72
